Time;durP1;ratioP1;P1;durP2;ratioP2;P2;SDS_P1;SDS_P2;PMS_P1;PMS_P2;Temp;Humidity;BMP_temperature;BMP_pressure;BME280_temperature;BME280_humidity;BME280_pressure;Samples;Min_cycle;Max_cycle;Signal;HPM_P1;HPM_P2
2022/02/14 00:00:48;;;;;;;80.90;41.28;;;;;;;;;;5077654;28;20087;-71
2022/02/14 00:03:15;;;;;;;81.32;41.97;;;;;;;;;;5095685;28;20388;-73
2022/02/14 00:05:41;;;;;;;90.25;46.22;;;;;;;;;;5077504;28;20429;-72
2022/02/14 00:08:07;;;;;;;92.00;45.72;;;;;;;;;;5095633;28;20024;-72
2022/02/14 00:10:34;;;;;;;97.10;48.60;;;;;;;;;;5095928;28;20457;-72
2022/02/14 00:13:00;;;;;;;102.28;51.22;;;;;;;;;;5077430;28;20036;-72
2022/02/14 00:15:26;;;;;;;108.50;54.00;;;;;;;;;;5077191;28;20055;-72
2022/02/14 00:17:53;;;;;;;103.95;50.63;;;;;;;;;;5094965;28;20043;-71
2022/02/14 00:20:19;;;;;;;87.85;43.25;;;;;;;;;;5095028;28;20460;-72
2022/02/14 00:22:45;;;;;;;86.95;43.05;;;;;;;;;;5095252;28;20020;-70
2022/02/14 00:25:13;;;;;;;95.15;43.90;;;;;;;;;;5077123;28;20512;-72
2022/02/14 00:27:40;;;;;;;93.10;47.45;;;;;;;;;;5094799;28;20051;-72
2022/02/14 00:30:06;;;;;;;86.05;43.25;;;;;;;;;;5095422;28;20039;-72
2022/02/14 00:32:34;;;;;;;84.95;43.35;;;;;;;;;;5077043;28;20436;-70
2022/02/14 00:35:00;;;;;;;97.07;47.33;;;;;;;;;;5076928;28;20507;-71
2022/02/14 00:37:26;;;;;;;104.53;53.20;;;;;;;;;;5095331;28;20115;-69
2022/02/14 00:39:52;;;;;;;87.95;45.80;;;;;;;;;;5076829;28;20114;-69
2022/02/14 00:42:18;;;;;;;95.82;47.35;;;;;;;;;;5094955;28;20055;-71
2022/02/14 00:47:49;;;;;;;105.00;51.40;;;;;;;;;;5094910;28;20027;-71
2022/02/14 00:50:16;;;;;;;112.80;52.58;;;;;;;;;;5094865;28;20085;-71
2022/02/14 00:52:42;;;;;;;107.57;54.35;;;;;;;;;;5094806;28;20065;-71
2022/02/14 00:55:09;;;;;;;101.68;49.70;;;;;;;;;;5094735;28;20476;-71
2022/02/14 00:57:35;;;;;;;92.20;46.00;;;;;;;;;;5094643;28;20099;-72
2022/02/14 01:00:02;;;;;;;91.97;44.72;;;;;;;;;;5094317;28;20377;-70
2022/02/14 01:02:28;;;;;;;94.80;50.10;;;;;;;;;;5076393;28;20067;-70
2022/02/14 01:04:54;;;;;;;113.45;55.92;;;;;;;;;;5076378;28;20059;-70
2022/02/14 01:07:21;;;;;;;134.07;64.93;;;;;;;;;;5094452;28;20022;-69
2022/02/14 01:09:47;;;;;;;141.60;67.90;;;;;;;;;;5094441;28;20016;-68
2022/02/14 01:12:13;;;;;;;144.93;68.03;;;;;;;;;;5094498;28;20059;-66
2022/02/14 01:14:40;;;;;;;185.13;83.13;;;;;;;;;;5093942;28;20056;-69
2022/02/14 01:17:06;;;;;;;171.32;79.45;;;;;;;;;;5076099;28;20115;-68
2022/02/14 01:19:32;;;;;;;186.52;82.30;;;;;;;;;;5076050;28;20028;-68
2022/02/14 01:21:59;;;;;;;199.88;85.25;;;;;;;;;;5094253;28;20138;-68
2022/02/14 01:24:25;;;;;;;184.30;80.20;;;;;;;;;;5075929;28;20393;-68
2022/02/14 01:26:52;;;;;;;231.18;92.57;;;;;;;;;;5094126;28;20024;-68
2022/02/14 01:29:19;;;;;;;248.32;95.28;;;;;;;;;;5093976;28;20060;-70
2022/02/14 01:31:45;;;;;;;222.40;88.38;;;;;;;;;;5094083;28;20032;-69
2022/02/14 01:34:11;;;;;;;199.77;85.68;;;;;;;;;;5075776;28;20452;-69
2022/02/14 01:36:37;;;;;;;203.48;85.20;;;;;;;;;;5094192;28;20031;-69
2022/02/14 01:39:03;;;;;;;179.40;78.63;;;;;;;;;;5093903;28;20161;-67
2022/02/14 01:41:29;;;;;;;161.43;70.15;;;;;;;;;;5093850;28;20111;-69
2022/02/14 01:43:56;;;;;;;151.70;67.95;;;;;;;;;;5093516;28;20105;-68
2022/02/14 01:46:22;;;;;;;165.77;73.55;;;;;;;;;;5075592;28;20036;-69
2022/02/14 01:48:48;;;;;;;151.07;66.82;;;;;;;;;;5093778;28;20107;-67
2022/02/14 01:51:14;;;;;;;150.70;62.97;;;;;;;;;;5094018;28;20052;-70
2022/02/14 01:53:41;;;;;;;130.60;57.38;;;;;;;;;;5075465;28;20118;-68
2022/02/14 01:56:07;;;;;;;149.23;64.90;;;;;;;;;;5093658;28;20031;-68
2022/02/14 01:58:33;;;;;;;166.95;66.25;;;;;;;;;;5093256;28;20358;-68
2022/02/14 02:00:59;;;;;;;129.82;57.80;;;;;;;;;;5093525;28;20056;-68
2022/02/14 02:03:26;;;;;;;127.28;56.50;;;;;;;;;;5075281;28;20119;-68
2022/02/14 02:05:52;;;;;;;124.93;54.17;;;;;;;;;;5075281;28;20059;-68
2022/02/14 02:08:18;;;;;;;123.10;56.22;;;;;;;;;;5093471;28;20024;-68
2022/02/14 02:10:45;;;;;;;107.55;47.40;;;;;;;;;;5093390;28;20460;-69
2022/02/14 02:13:11;;;;;;;93.22;44.25;;;;;;;;;;5075242;28;20119;-70
2022/02/14 02:15:37;;;;;;;98.22;43.80;;;;;;;;;;5092841;28;20127;-71
2022/02/14 02:18:07;;;;;;;84.40;40.38;;;;;;;;;;5093279;28;20075;-70
2022/02/14 02:20:33;;;;;;;88.55;41.90;;;;;;;;;;5093248;28;20469;-69
2022/02/14 02:23:00;;;;;;;118.68;53.53;;;;;;;;;;5093515;28;20032;-70
2022/02/14 02:25:26;;;;;;;104.05;50.72;;;;;;;;;;5093222;28;20056;-69
2022/02/14 02:27:52;;;;;;;86.25;43.25;;;;;;;;;;5093050;28;20351;-71
2022/02/14 02:30:22;;;;;;;88.22;41.08;;;;;;;;;;5093158;28;20028;-69
2022/02/14 02:32:49;;;;;;;86.90;43.00;;;;;;;;;;5075038;28;20484;-70
2022/02/14 02:35:15;;;;;;;88.13;43.83;;;;;;;;;;5093429;28;20046;-69
2022/02/14 02:37:41;;;;;;;85.70;42.10;;;;;;;;;;5074894;28;20020;-70
2022/02/14 02:40:09;;;;;;;85.38;40.70;;;;;;;;;;5092732;28;20103;-74
2022/02/14 02:42:35;;;;;;;72.97;38.00;;;;;;;;;;5077268;28;22451;-73
2022/02/14 02:45:01;;;;;;;66.05;33.25;;;;;;;;;;5078993;28;20048;-74
2022/02/14 02:47:28;;;;;;;69.88;33.13;;;;;;;;;;5078960;28;20065;-74
2022/02/14 02:49:54;;;;;;;77.38;37.75;;;;;;;;;;5078924;28;20020;-72
2022/02/14 02:52:21;;;;;;;94.03;45.75;;;;;;;;;;5096840;28;20474;-73
2022/02/14 02:54:48;;;;;;;90.50;44.50;;;;;;;;;;5097022;28;20461;-73
2022/02/14 02:57:15;;;;;;;83.18;44.00;;;;;;;;;;5097017;28;20031;-74
2022/02/14 02:59:42;;;;;;;78.90;40.83;;;;;;;;;;5078816;28;20024;-73
2022/02/14 03:02:08;;;;;;;83.68;40.97;;;;;;;;;;5078807;28;20028;-72
2022/02/14 03:04:35;;;;;;;78.28;41.35;;;;;;;;;;5078597;28;20059;-72
2022/02/14 03:07:01;;;;;;;83.82;42.03;;;;;;;;;;5096595;28;20036;-72
2022/02/14 03:09:28;;;;;;;81.25;41.42;;;;;;;;;;5078600;28;20111;-72
2022/02/14 03:11:54;;;;;;;77.22;38.28;;;;;;;;;;5096794;28;20035;-72
2022/02/14 03:14:21;;;;;;;87.07;41.75;;;;;;;;;;5078175;28;20396;-72
2022/02/14 03:16:47;;;;;;;102.13;39.50;;;;;;;;;;5078450;28;20487;-75
2022/02/14 03:19:14;;;;;;;84.25;35.88;;;;;;;;;;5078343;28;20369;-73
2022/02/14 03:21:41;;;;;;;80.97;35.30;;;;;;;;;;5078252;28;20403;-73
2022/02/14 03:24:07;;;;;;;71.22;33.88;;;;;;;;;;5078233;28;20586;-73
2022/02/14 03:26:33;;;;;;;66.60;34.97;;;;;;;;;;5078344;28;20028;-72
2022/02/14 03:29:00;;;;;;;60.88;32.33;;;;;;;;;;5078126;28;20166;-71
2022/02/14 03:31:26;;;;;;;70.47;35.38;;;;;;;;;;5096374;28;20338;-72
2022/02/14 03:33:53;;;;;;;71.68;33.88;;;;;;;;;;5096376;28;20035;-72
2022/02/14 03:36:20;;;;;;;67.97;35.47;;;;;;;;;;5096278;28;20027;-73
2022/02/14 03:38:47;;;;;;;70.15;35.00;;;;;;;;;;5077975;28;20020;-75
2022/02/14 03:41:13;;;;;;;64.15;33.28;;;;;;;;;;5096180;28;20024;-73
2022/02/14 03:43:40;;;;;;;64.47;31.70;;;;;;;;;;5077965;28;20178;-71
2022/02/14 03:46:06;;;;;;;62.03;32.17;;;;;;;;;;5095804;28;20532;-74
2022/02/14 03:48:33;;;;;;;61.90;33.72;;;;;;;;;;5096071;28;20373;-72
2022/02/14 03:51:00;;;;;;;65.43;30.88;;;;;;;;;;5096047;28;20032;-73
2022/02/14 03:53:26;;;;;;;55.22;30.08;;;;;;;;;;5094644;28;20036;-71
2022/02/14 03:55:52;;;;;;;67.78;32.53;;;;;;;;;;5095573;28;20069;-69
2022/02/14 03:58:19;;;;;;;119.50;53.00;;;;;;;;;;5095859;28;20082;-69
2022/02/14 04:00:45;;;;;;;92.68;43.55;;;;;;;;;;5077568;28;20059;-70
2022/02/14 04:03:12;;;;;;;111.78;51.58;;;;;;;;;;5095716;28;20039;-72
2022/02/14 04:05:38;;;;;;;88.85;43.85;;;;;;;;;;5077459;28;20024;-70
2022/02/14 04:08:04;;;;;;;72.53;37.28;;;;;;;;;;5077448;28;20460;-70
2022/02/14 04:10:31;;;;;;;62.60;32.80;;;;;;;;;;5095817;28;20020;-71
2022/02/14 04:12:57;;;;;;;68.57;36.05;;;;;;;;;;5095595;28;20028;-69
2022/02/14 04:15:23;;;;;;;70.15;34.95;;;;;;;;;;5095623;28;20068;-70
2022/02/14 04:17:50;;;;;;;75.18;34.55;;;;;;;;;;5095463;28;20255;-70
2022/02/14 04:20:16;;;;;;;71.57;34.25;;;;;;;;;;5095702;28;20026;-68
2022/02/14 04:22:43;;;;;;;67.70;35.05;;;;;;;;;;5095323;28;20028;-68
2022/02/14 04:25:16;;;;;;;62.15;33.10;;;;;;;;;;5077153;28;20473;-70
2022/02/14 04:27:42;;;;;;;61.78;31.15;;;;;;;;;;5095355;28;20020;-71
2022/02/14 04:30:10;;;;;;;61.03;30.75;;;;;;;;;;5095273;28;20027;-69
2022/02/14 04:32:37;;;;;;;62.17;31.67;;;;;;;;;;5095277;28;20103;-69
2022/02/14 04:35:03;;;;;;;57.50;30.10;;;;;;;;;;5076937;28;20032;-70
2022/02/14 04:37:30;;;;;;;65.50;32.95;;;;;;;;;;5076857;28;20039;-71
2022/02/14 04:39:56;;;;;;;65.80;33.55;;;;;;;;;;5076854;28;20346;-71
2022/02/14 04:42:23;;;;;;;72.38;32.97;;;;;;;;;;5076709;28;20124;-69
2022/02/14 04:44:49;;;;;;;63.85;31.45;;;;;;;;;;5095037;28;20028;-68
2022/02/14 04:47:15;;;;;;;170.93;36.00;;;;;;;;;;5095152;28;20456;-68
2022/02/14 04:49:41;;;;;;;59.33;30.98;;;;;;;;;;5076687;28;20415;-70
2022/02/14 04:52:07;;;;;;;62.10;30.80;;;;;;;;;;5094854;28;20020;-68
2022/02/14 04:54:34;;;;;;;58.72;30.48;;;;;;;;;;5094831;28;20055;-68
2022/02/14 04:57:00;;;;;;;63.60;31.15;;;;;;;;;;5094784;28;20032;-68
2022/02/14 04:59:26;;;;;;;62.35;32.85;;;;;;;;;;5094919;28;20103;-68
2022/02/14 05:01:52;;;;;;;80.25;36.05;;;;;;;;;;5076363;28;20020;-67
2022/02/14 05:04:19;;;;;;;66.40;33.97;;;;;;;;;;5075973;28;20529;-68
2022/02/14 05:06:46;;;;;;;65.82;32.75;;;;;;;;;;5094471;28;20028;-68
2022/02/14 05:09:12;;;;;;;70.93;33.88;;;;;;;;;;5094496;28;20021;-67
2022/02/14 05:11:38;;;;;;;204.00;98.25;;;;;;;;;;5094691;28;20107;-68
2022/02/14 05:14:05;;;;;;;206.98;101.30;;;;;;;;;;5072338;28;20048;-68
2022/02/14 05:16:31;;;;;;;143.20;71.50;;;;;;;;;;5072845;28;20039;-68
2022/02/14 05:18:57;;;;;;;93.63;45.35;;;;;;;;;;5072399;28;20028;-68
2022/02/14 05:21:23;;;;;;;89.20;44.03;;;;;;;;;;5073945;28;20024;-70
2022/02/14 05:23:51;;;;;;;97.75;46.95;;;;;;;;;;5073968;28;20057;-72
2022/02/14 05:26:18;;;;;;;90.00;43.85;;;;;;;;;;5072560;28;20335;-71
2022/02/14 05:28:44;;;;;;;91.50;44.88;;;;;;;;;;5073824;28;20052;-72
2022/02/14 05:31:10;;;;;;;90.72;44.60;;;;;;;;;;5073370;28;20362;-72
2022/02/14 05:33:36;;;;;;;86.45;44.78;;;;;;;;;;5072498;28;20123;-72
2022/02/14 05:36:02;;;;;;;94.93;46.00;;;;;;;;;;5073693;28;20041;-72
2022/02/14 05:38:29;;;;;;;89.43;44.92;;;;;;;;;;5073234;28;20390;-72
2022/02/14 05:40:55;;;;;;;86.93;44.90;;;;;;;;;;5073872;28;20064;-70
2022/02/14 05:43:21;;;;;;;90.53;44.88;;;;;;;;;;5072135;28;20123;-68
2022/02/14 05:45:47;;;;;;;92.88;45.30;;;;;;;;;;5073548;28;20032;-68
2022/02/14 05:48:14;;;;;;;91.32;44.65;;;;;;;;;;5073442;28;20025;-70
2022/02/14 05:50:40;;;;;;;85.07;41.42;;;;;;;;;;5073436;28;20025;-69
2022/02/14 05:53:06;;;;;;;87.88;44.17;;;;;;;;;;5073417;28;20086;-66
2022/02/14 05:55:33;;;;;;;108.05;50.90;;;;;;;;;;5073366;28;20063;-68
2022/02/14 05:57:59;;;;;;;101.07;50.08;;;;;;;;;;5073673;28;20039;-68
2022/02/14 06:00:25;;;;;;;87.55;44.95;;;;;;;;;;5073377;28;20020;-69
2022/02/14 06:02:51;;;;;;;93.35;45.95;;;;;;;;;;5073213;28;20060;-68
2022/02/14 06:05:20;;;;;;;93.00;49.40;;;;;;;;;;5073259;28;20098;-68
2022/02/14 06:07:46;;;;;;;92.10;44.60;;;;;;;;;;5073170;28;20055;-66
2022/02/14 06:10:12;;;;;;;94.82;47.70;;;;;;;;;;5071875;28;20097;-67
2022/02/14 06:12:38;;;;;;;98.88;48.58;;;;;;;;;;5073087;28;20107;-70
2022/02/14 06:15:05;;;;;;;113.38;52.78;;;;;;;;;;5071547;28;20516;-68
2022/02/14 06:17:31;;;;;;;105.60;52.45;;;;;;;;;;5071041;28;20032;-68
2022/02/14 06:19:57;;;;;;;105.38;49.40;;;;;;;;;;5071741;28;20125;-68
2022/02/14 06:22:25;;;;;;;109.05;52.72;;;;;;;;;;5073038;28;20032;-67
2022/02/14 06:24:51;;;;;;;140.77;67.00;;;;;;;;;;5071747;28;20509;-68
2022/02/14 06:27:17;;;;;;;172.57;79.32;;;;;;;;;;5072905;28;20584;-69
2022/02/14 06:29:43;;;;;;;175.68;81.00;;;;;;;;;;5072929;28;20107;-70
2022/02/14 06:32:10;;;;;;;138.13;67.93;;;;;;;;;;5071179;28;20464;-69
2022/02/14 06:34:36;;;;;;;147.20;68.75;;;;;;;;;;5071529;28;20025;-69
2022/02/14 06:37:02;;;;;;;104.20;51.83;;;;;;;;;;5073722;28;20036;-67
2022/02/14 06:39:28;;;;;;;97.15;49.38;;;;;;;;;;5073712;28;20033;-67
2022/02/14 06:41:58;;;;;;;96.03;44.35;;;;;;;;;;5074531;28;20032;-66
2022/02/14 06:44:24;;;;;;;88.95;45.47;;;;;;;;;;5075057;28;20098;-67
2022/02/14 06:46:53;;;;;;;83.93;43.50;;;;;;;;;;5074455;28;20067;-65
2022/02/14 06:49:19;;;;;;;94.38;43.80;;;;;;;;;;5072006;28;20020;-66
2022/02/14 06:51:45;;;;;;;84.28;43.65;;;;;;;;;;5073610;28;20135;-65
2022/02/14 06:54:11;;;;;;;87.85;43.70;;;;;;;;;;5072147;28;20032;-65
2022/02/14 06:56:38;;;;;;;128.93;47.40;;;;;;;;;;5071733;28;20123;-66
2022/02/14 06:59:04;;;;;;;96.93;47.33;;;;;;;;;;5071581;28;20529;-65
2022/02/14 07:01:30;;;;;;;104.97;55.00;;;;;;;;;;5071337;28;20119;-64
2022/02/14 07:03:56;;;;;;;109.43;56.05;;;;;;;;;;5064308;28;20162;-65
2022/02/14 07:06:22;;;;;;;117.75;57.88;;;;;;;;;;5062080;28;20025;-65
2022/02/14 07:08:49;;;;;;;114.97;56.58;;;;;;;;;;5072566;28;20053;-65
2022/02/14 07:11:15;;;;;;;128.23;61.20;;;;;;;;;;5072573;28;20087;-64
2022/02/14 07:13:41;;;;;;;117.78;58.22;;;;;;;;;;5079949;28;20035;-64
2022/02/14 07:16:07;;;;;;;118.70;61.47;;;;;;;;;;5112938;28;20019;-64
2022/02/14 07:18:34;;;;;;;121.47;62.15;;;;;;;;;;5094721;28;20020;-65
2022/02/14 07:21:00;;;;;;;107.35;55.35;;;;;;;;;;5094671;28;20032;-65
2022/02/14 07:23:26;;;;;;;107.30;55.05;;;;;;;;;;5112845;28;20073;-64
2022/02/14 07:25:52;;;;;;;109.03;55.72;;;;;;;;;;5094683;28;20028;-64
2022/02/14 07:28:18;;;;;;;98.68;55.40;;;;;;;;;;5096465;28;20310;-65
2022/02/14 07:30:45;;;;;;;110.90;54.63;;;;;;;;;;5116703;28;20034;-64
2022/02/14 07:33:11;;;;;;;111.68;57.72;;;;;;;;;;5116932;28;20100;-67
2022/02/14 07:35:37;;;;;;;118.60;60.28;;;;;;;;;;5098366;28;20031;-70
2022/02/14 07:38:04;;;;;;;93.03;51.13;;;;;;;;;;5116613;28;20456;-68
2022/02/14 07:40:30;;;;;;;91.35;47.30;;;;;;;;;;5098196;28;20573;-68
2022/02/14 07:42:56;;;;;;;83.28;44.60;;;;;;;;;;5116123;28;20357;-69
2022/02/14 07:45:23;;;;;;;84.10;44.97;;;;;;;;;;5116074;28;20118;-71
2022/02/14 07:47:50;;;;;;;88.43;44.78;;;;;;;;;;5116312;28;20024;-71
2022/02/14 07:50:16;;;;;;;85.25;43.30;;;;;;;;;;5098021;28;20028;-65
2022/02/14 07:52:42;;;;;;;86.88;44.90;;;;;;;;;;5114518;28;20031;-65
2022/02/14 07:55:09;;;;;;;70.75;38.47;;;;;;;;;;5115058;28;20024;-65
2022/02/14 07:57:35;;;;;;;83.68;42.53;;;;;;;;;;5115880;28;20448;-65
2022/02/14 08:00:02;;;;;;;79.45;41.63;;;;;;;;;;5109914;28;20056;-64
2022/02/14 08:02:29;;;;;;;89.57;43.65;;;;;;;;;;5077092;28;20020;-69
2022/02/14 08:04:55;;;;;;;75.57;38.88;;;;;;;;;;5077249;28;20043;-66
2022/02/14 08:07:21;;;;;;;71.68;37.88;;;;;;;;;;5077245;28;20169;-67
2022/02/14 08:09:47;;;;;;;66.20;36.83;;;;;;;;;;5095722;28;20111;-67
2022/02/14 08:12:14;;;;;;;67.32;34.33;;;;;;;;;;5095418;28;20522;-68
2022/02/14 08:14:42;;;;;;;67.40;35.40;;;;;;;;;;5076919;28;20460;-72
2022/02/14 08:17:08;;;;;;;64.47;34.42;;;;;;;;;;5095343;28;20017;-73
2022/02/14 08:19:34;;;;;;;59.22;33.53;;;;;;;;;;5095235;28;20508;-71
2022/02/14 08:22:01;;;;;;;65.55;35.80;;;;;;;;;;5095490;28;20467;-70
2022/02/14 08:24:27;;;;;;;61.55;35.28;;;;;;;;;;5095161;28;20039;-69
2022/02/14 08:26:53;;;;;;;61.58;34.65;;;;;;;;;;5095444;28;20032;-69
2022/02/14 08:29:20;;;;;;;73.53;38.75;;;;;;;;;;5095019;28;20028;-70
2022/02/14 08:31:46;;;;;;;66.90;36.92;;;;;;;;;;5095347;28;20023;-71
2022/02/14 08:34:13;;;;;;;65.55;38.38;;;;;;;;;;5094892;28;20076;-73
2022/02/14 08:36:39;;;;;;;66.35;37.15;;;;;;;;;;5094755;28;20025;-69
2022/02/14 08:39:06;;;;;;;207.00;45.35;;;;;;;;;;5075977;28;20038;-69
2022/02/14 08:41:32;;;;;;;73.70;40.83;;;;;;;;;;5094292;28;20050;-71
2022/02/14 08:43:59;;;;;;;84.50;44.45;;;;;;;;;;5094616;28;20435;-67
2022/02/14 08:46:26;;;;;;;90.53;49.38;;;;;;;;;;5092490;28;20035;-69
2022/02/14 08:48:53;;;;;;;90.22;48.35;;;;;;;;;;5094154;28;20345;-70
2022/02/14 08:51:20;;;;;;;103.90;51.75;;;;;;;;;;5094484;28;20028;-70
2022/02/14 08:53:47;;;;;;;87.80;48.53;;;;;;;;;;5094532;28;20396;-70
2022/02/14 08:56:13;;;;;;;96.30;47.22;;;;;;;;;;5094516;28;20028;-69
2022/02/14 08:58:40;;;;;;;79.82;43.47;;;;;;;;;;5094227;28;20031;-72
2022/02/14 09:01:06;;;;;;;72.95;41.15;;;;;;;;;;5094288;28;20480;-70
2022/02/14 09:03:33;;;;;;;67.88;38.75;;;;;;;;;;5075941;28;20086;-69
2022/02/14 09:05:59;;;;;;;72.13;39.63;;;;;;;;;;5093849;28;20435;-71
2022/02/14 09:08:25;;;;;;;74.18;38.45;;;;;;;;;;5094114;28;20090;-69
2022/02/14 09:10:52;;;;;;;67.15;35.55;;;;;;;;;;5094143;28;20024;-68
2022/02/14 09:13:18;;;;;;;69.85;34.65;;;;;;;;;;5093696;28;20485;-69
2022/02/14 09:15:45;;;;;;;57.85;32.63;;;;;;;;;;5094253;28;20456;-66
2022/02/14 09:18:11;;;;;;;70.22;35.05;;;;;;;;;;5093442;28;20070;-68
2022/02/14 09:20:38;;;;;;;53.65;33.25;;;;;;;;;;5075011;28;20426;-68
2022/02/14 09:23:04;;;;;;;64.63;36.17;;;;;;;;;;5075994;28;20032;-66
2022/02/14 09:25:30;;;;;;;76.90;43.40;;;;;;;;;;5094161;28;20040;-68
2022/02/14 09:27:57;;;;;;;71.78;41.30;;;;;;;;;;5094364;28;20032;-68
2022/02/14 09:30:23;;;;;;;67.88;38.08;;;;;;;;;;5093752;28;20429;-65
2022/02/14 09:32:50;;;;;;;63.15;35.50;;;;;;;;;;5091607;28;20103;-68
2022/02/14 09:35:26;;;;;;;56.83;34.58;;;;;;;;;;5093754;28;20032;-69
2022/02/14 09:38:02;;;;;;;108.82;36.35;;;;;;;;;;5075367;28;20119;-69
2022/02/14 09:40:29;;;;;;;64.05;35.58;;;;;;;;;;5075576;28;20093;-68
2022/02/14 09:42:56;;;;;;;70.22;39.20;;;;;;;;;;5093478;28;20119;-67
2022/02/14 09:45:23;;;;;;;64.68;37.90;;;;;;;;;;5092297;28;20042;-67
2022/02/14 09:47:56;;;;;;;69.40;39.40;;;;;;;;;;5092694;28;20362;-67
2022/02/14 09:50:22;;;;;;;73.85;39.55;;;;;;;;;;5093163;28;20027;-67
2022/02/14 09:52:48;;;;;;;70.00;38.85;;;;;;;;;;5093475;28;20368;-68
2022/02/14 09:55:15;;;;;;;72.30;37.88;;;;;;;;;;5093557;28;20400;-68
2022/02/14 09:57:41;;;;;;;65.88;38.70;;;;;;;;;;5093278;28;20036;-69
2022/02/14 10:00:08;;;;;;;90.05;50.55;;;;;;;;;;5074964;28;20111;-67
2022/02/14 10:02:35;;;;;;;80.90;46.78;;;;;;;;;;5075537;28;20404;-68
2022/02/14 10:05:07;;;;;;;88.03;49.00;;;;;;;;;;5093283;28;20469;-66
2022/02/14 10:07:40;;;;;;;90.68;49.42;;;;;;;;;;5093038;28;20150;-67
2022/02/14 10:10:13;;;;;;;91.07;52.60;;;;;;;;;;5093273;28;20126;-67
2022/02/14 10:12:41;;;;;;;98.65;52.80;;;;;;;;;;5093164;28;20115;-66
2022/02/14 10:15:08;;;;;;;120.22;58.70;;;;;;;;;;5092827;28;20040;-66
2022/02/14 10:17:38;;;;;;;94.35;53.88;;;;;;;;;;5093248;28;20054;-68
2022/02/14 10:20:05;;;;;;;95.60;51.90;;;;;;;;;;5093168;28;20028;-67
2022/02/14 10:22:31;;;;;;;108.53;54.15;;;;;;;;;;5075098;28;20118;-67
2022/02/14 10:24:57;;;;;;;91.18;53.20;;;;;;;;;;5093085;28;20023;-67
2022/02/14 10:27:32;;;;;;;97.85;48.80;;;;;;;;;;5075109;28;20032;-68
2022/02/14 10:30:07;;;;;;;83.28;45.92;;;;;;;;;;5075003;28;20115;-67
2022/02/14 10:32:33;;;;;;;86.38;47.58;;;;;;;;;;5074930;28;20081;-68
2022/02/14 10:35:00;;;;;;;89.13;47.83;;;;;;;;;;5090800;28;20024;-68
2022/02/14 10:37:40;;;;;;;90.47;50.30;;;;;;;;;;5092839;28;20063;-68
2022/02/14 10:40:07;;;;;;;103.28;53.55;;;;;;;;;;5092935;28;20548;-67
2022/02/14 10:42:37;;;;;;;89.43;52.00;;;12.70;94.60;;;;;;5093154;28;20545;-68
2022/02/14 10:45:08;;;;;;;81.17;46.67;;;;;;;;;;5074739;28;20098;-67
2022/02/14 10:47:42;;;;;;;80.45;46.25;;;;;;;;;;5092787;28;20068;-69
2022/02/14 10:50:08;;;;;;;80.20;46.00;;;;;;;;;;5092814;28;20033;-69
2022/02/14 10:52:36;;;;;;;84.35;47.22;;;;;;;;;;5092737;28;20049;-67
2022/02/14 10:55:04;;;;;;;88.60;49.33;;;;;;;;;;5092727;28;20054;-68
2022/02/14 10:57:32;;;;;;;91.53;50.80;;;;;;;;;;5074573;28;20058;-70
2022/02/14 11:00:10;;;;;;;97.80;49.90;;;;;;;;;;5092740;28;20020;-67
2022/02/14 11:02:36;;;;;;;82.05;47.80;;;;;;;;;;5093304;28;20019;-67
2022/02/14 11:05:04;;;;;;;93.00;50.58;;;;;;;;;;5096739;28;20046;-67
2022/02/14 11:07:31;;;;;;;91.18;49.35;;;;;;;;;;5096678;28;20527;-67
2022/02/14 11:09:59;;;;;;;94.35;50.90;;;;;;;;;;5096425;28;20020;-65
2022/02/14 11:12:29;;;;;;;88.22;48.47;;;;;;;;;;5078344;28;20035;-65
2022/02/14 11:14:56;;;;;;;74.18;45.50;;;;;;;;;;5077907;28;20058;-69
2022/02/14 11:17:24;;;;;;;69.60;42.30;;;;;;;;;;5095997;28;20423;-65
2022/02/14 11:19:52;;;;;;;72.20;42.90;;;;;;;;;;5096045;28;20404;-68
2022/02/14 11:22:18;;;;;;;76.15;43.33;;;;;;;;;;5078144;28;20020;-67
2022/02/14 11:24:48;;;;;;;71.13;38.55;;;;;;;;;;5095999;28;20503;-66
2022/02/14 11:27:17;;;;;;;67.57;37.80;;;;;;;;;;5078011;28;20142;-65
2022/02/14 11:29:51;;;;;;;61.80;35.70;;;;;;;;;;5078034;28;20016;-68
2022/02/14 11:32:19;;;;;;;75.60;39.50;;;;;;;;;;5094433;28;20027;-67
2022/02/14 11:35:17;;;;;;;64.68;38.67;;;;;;;;;;5094902;28;20032;-68
2022/02/14 11:38:01;;;;;;;62.70;37.45;;;;;;;;;;5095342;28;20032;-66
2022/02/14 11:40:40;;;;;;;65.75;37.83;;;;;;;;;;5095818;28;20048;-66
2022/02/14 11:43:10;;;;;;;60.97;37.08;;;;;;;;;;5095349;28;20016;-67
2022/02/14 11:45:38;;;;;;;56.20;35.90;;;;;;;;;;5095867;28;20133;-65
2022/02/14 11:48:24;;;;;;;66.53;36.88;;;;;;;;;;5096285;28;20461;-65
2022/02/14 11:50:50;;;;;;;71.45;41.40;;;;;;;;;;5095499;28;20028;-66
2022/02/14 11:53:31;;;;;;;68.40;39.25;;;;;;;;;;5095517;28;20028;-65
2022/02/14 11:56:16;;;;;;;66.57;39.42;;;;;;;;;;5095682;28;20423;-65
2022/02/14 11:59:01;;;;;;;58.10;37.55;;;;;;;;;;5095181;28;20103;-64
2022/02/14 12:01:29;;;;;;;68.60;40.33;;;;;;;;;;5095074;28;20380;-66
2022/02/14 12:04:15;;;;;;;68.78;41.08;;;;;;;;;;5077169;28;20077;-64
2022/02/14 12:07:00;;;;;;;81.88;45.85;;;;;;;;;;5095055;28;20024;-64
2022/02/14 12:09:26;;;;;;;75.10;44.05;;;;;;;;;;5077005;28;20426;-66
2022/02/14 12:11:52;;;;;;;74.90;41.50;;;;;;;;;;5077126;28;20057;-64
2022/02/14 12:14:28;;;;;;;69.30;42.40;;;;;;;;;;5097762;28;20052;-65
2022/02/14 12:22:44;;;;;;;64.75;37.50;;;;;;;;;;5115426;28;20535;-64
2022/02/14 12:25:10;;;;;;;68.50;39.20;;;;;;;;;;5100951;28;20053;-65
2022/02/14 12:27:36;;;;;;;70.65;40.53;;;;;;;;;;5092918;28;20031;-63
2022/02/14 12:30:22;;;;;;;60.33;35.47;;;;;;;;;;5075824;28;20421;-64
2022/02/14 12:33:10;;;;;;;66.07;38.70;;;;;;;;;;5094624;28;20131;-67
2022/02/14 12:35:43;;;;;;;52.25;34.50;;;;;;;;;;5094166;28;20423;-65
2022/02/14 12:38:10;;;;;;;54.40;34.28;;;;;;;;;;5100407;28;20410;-65
2022/02/14 12:40:45;;;;;;;61.58;34.42;;;;;;;;;;5110696;28;20024;-66
2022/02/14 12:43:11;;;;;;;55.05;29.23;;;;;;;;;;5100338;28;20093;-64
2022/02/14 12:45:38;;;;;;;51.67;30.55;;;;;;;;;;5094366;28;20039;-65
2022/02/14 12:48:04;;;;;;;59.10;35.42;;;;;;;;;;5094660;28;20500;-65
2022/02/14 12:50:37;;;;;;;61.60;32.90;;;;;;;;;;5094458;28;20026;-65
2022/02/14 12:53:10;;;;;;;46.45;27.88;;;;;;;;;;5076322;28;20051;-65
2022/02/14 12:55:37;;;;;;;63.70;34.80;;;;;;;;;;5094129;28;20028;-65
2022/02/14 12:58:03;;;;;;;56.80;32.50;;;;;;;;;;5076594;28;20371;-65
2022/02/14 13:00:38;;;;;;;57.95;33.10;;;;;;;;;;5076052;28;20408;-64
2022/02/14 13:03:15;;;;;;;51.25;30.75;;;;;;;;;;5076064;28;20085;-65
2022/02/14 13:05:48;;;;;;;46.67;26.00;;;;;;;;;;5098438;28;20483;-65
2022/02/14 13:08:20;;;;;;;53.42;30.15;;;;;;;;;;5096186;28;20027;-65
2022/02/14 13:10:47;;;;;;;63.85;35.10;;;;;;;;;;5096590;28;20402;-64
2022/02/14 13:13:28;;;;;;;76.15;41.45;;;;;;;;;;5095943;28;20027;-64
2022/02/14 13:15:55;;;;;;;76.70;42.53;;;;;;;;;;5114081;28;20393;-64
2022/02/14 13:18:22;;;;;;;75.47;42.72;;;;;;;;;;5114246;28;20436;-66
2022/02/14 13:20:56;;;;;;;73.63;41.60;;;;;;;;;;5108434;28;20058;-66
2022/02/14 13:23:22;;;;;;;66.88;40.20;;;;;;;;;;5075682;28;20028;-66
2022/02/14 13:25:52;;;;;;;76.93;42.80;;;;;;;;;;5093609;28;20024;-66
2022/02/14 13:28:19;;;;;;;79.90;43.53;;;;;;;;;;5093880;28;20020;-65
2022/02/14 13:30:45;;;;;;;82.68;44.88;;;;;;;;;;5075602;28;20035;-65
2022/02/14 13:33:19;;;;;;;75.55;41.25;;;;;;;;;;5075588;28;20064;-66
2022/02/14 13:35:45;;;;;;;85.70;45.17;;;;;;;;;;5075677;28;20440;-66
2022/02/14 13:38:11;;;;;;;77.28;41.00;;;;;;;;;;5075502;28;20095;-65
2022/02/14 13:40:40;;;;;;;77.75;42.40;;;;;;;;;;5075194;28;20385;-67
2022/02/14 13:43:07;;;;;;;72.18;34.33;;;;;;;;;;5093535;28;20107;-66
2022/02/14 13:45:43;;;;;;;58.35;30.40;;;;;;;;;;5093405;28;20032;-65
2022/02/14 13:48:20;;;;;;;64.90;33.15;;;;;;;;;;5093638;28;20103;-64
2022/02/14 13:50:48;;;;;;;56.22;30.42;;;;;;;;;;5075307;28;20030;-65
2022/02/14 13:53:33;;;;;;;64.90;34.90;;;;;;;;;;5093521;28;20028;-64
2022/02/14 13:56:09;;;;;;;47.75;26.73;;;;;;;;;;5093203;28;20358;-65
2022/02/14 13:58:37;;;;;;;52.15;28.02;;;;;;;;;;5093160;28;20024;-65
2022/02/14 14:01:20;;;;;;;45.85;25.60;;;;;;;;;;5089053;28;20357;-66
2022/02/14 14:03:46;;;;;;;49.92;24.33;;;;;;;;;;5095178;28;20369;-65
2022/02/14 14:06:20;;;;;;;47.28;25.90;;;;;;;;;;5113704;28;20032;-66
2022/02/14 14:08:46;;;;;;;49.53;23.20;;;;;;;;;;5113467;28;20024;-66
2022/02/14 14:11:25;;;;;;;45.28;24.45;;;;;;;;;;5095196;28;20169;-65
2022/02/14 14:13:53;;;;;;;44.28;25.23;;;;;;;;;;5113522;28;20126;-67
2022/02/14 14:16:20;;;;;;;42.70;22.35;;;;;;;;;;5113453;28;20038;-67
2022/02/14 14:18:49;;;;;;;39.70;21.73;;;;;;;;;;5113512;28;20088;-73
2022/02/14 14:21:17;;;;;;;33.33;17.83;;;;;;;;;;5113068;28;20051;-67
2022/02/14 14:23:44;;;;;;;29.92;16.52;;;;;;;;;;5113171;28;20031;-70
2022/02/14 14:26:11;;;;;;;24.67;14.88;;;;;;;;;;5095054;28;20123;-69